Time;durP1;ratioP1;P1;durP2;ratioP2;P2;SDS_P1;SDS_P2;PMS_P1;PMS_P2;Temp;Humidity;BMP_temperature;BMP_pressure;BME280_temperature;BME280_humidity;BME280_pressure;Samples;Min_cycle;Max_cycle;Signal;HPM_P1;HPM_P2
2021/11/20 00:02:46;;;;;;;;;;;11.60;99.90;;;;;;8431815;28;19924;-73
2021/11/20 00:06:49;;;;;;;;;;;11.50;99.90;;;;;;8433415;28;19920;-73
2021/11/20 00:10:54;;;;;;;;;;;11.50;99.90;;;;;;8440662;28;19931;-73
2021/11/20 00:14:55;;;;;;;;;;;11.50;99.90;;;;;;8437725;28;19920;-73
2021/11/20 00:18:59;;;;;;;;;;;11.50;99.90;;;;;;8431730;28;19982;-73
2021/11/20 00:23:02;;;;;;;;;;;11.50;99.90;;;;;;8430246;28;19924;-73
2021/11/20 00:27:05;;;;;;;;;;;11.50;99.90;;;;;;8433001;28;19939;-73
2021/11/20 00:31:08;;;;;;;;;;;11.50;99.90;;;;;;8428196;28;19927;-73
2021/11/20 00:35:12;;;;;;;;;;;11.50;99.90;;;;;;8426902;28;19928;-73
2021/11/20 00:39:15;;;;;;;;;;;11.40;99.90;;;;;;8449102;27;19941;-73
2021/11/20 00:43:17;;;;;;;;;;;11.40;99.90;;;;;;8429569;28;20360;-73
2021/11/20 00:47:19;;;;;;;;;;;11.40;99.90;;;;;;8433373;28;19931;-73
2021/11/20 00:51:22;;;;;;;;;;;11.40;99.90;;;;;;8433761;28;19923;-73
2021/11/20 00:55:26;;;;;;;;;;;11.40;99.90;;;;;;8430167;28;19927;-73
2021/11/20 00:59:28;;;;;;;;;;;11.30;99.90;;;;;;8422178;28;20379;-73
2021/11/20 01:03:29;;;;;;;;;;;11.30;99.90;;;;;;8429968;28;20398;-73
2021/11/20 01:07:31;;;;;;;;;;;11.30;99.90;;;;;;8436606;28;19928;-73
2021/11/20 01:11:36;;;;;;;;;;;11.30;99.90;;;;;;8433361;28;19919;-73
2021/11/20 01:15:40;;;;;;;;;;;11.30;99.90;;;;;;8425970;28;19927;-73
2021/11/20 01:19:42;;;;;;;;;;;11.30;99.90;;;;;;8427888;28;19924;-73
2021/11/20 01:23:45;;;;;;;;;;;11.30;99.90;;;;;;8430778;28;19948;-73
2021/11/20 01:27:47;;;;;;;;;;;11.30;99.90;;;;;;8441150;27;20409;-73
2021/11/20 01:31:50;;;;;;;;;;;11.30;99.90;;;;;;8432903;28;19931;-73
2021/11/20 01:35:51;;;;;;;;;;;11.30;99.90;;;;;;8430261;28;19939;-73
2021/11/20 01:39:53;;;;;;;;;;;11.30;99.90;;;;;;8430392;28;20275;-73
2021/11/20 01:43:56;;;;;;;;;;;11.30;99.90;;;;;;8431756;28;19931;-73
2021/11/20 01:48:16;;;;;;;;;;;11.20;99.90;;;;;;8436680;28;19924;-73
2021/11/20 01:52:36;;;;;;;;;;;11.20;99.90;;;;;;8431903;28;19924;-73
2021/11/20 01:56:51;;;;;;;;;;;11.20;99.90;;;;;;8421169;28;20268;-73
2021/11/20 02:01:11;;;;;;;;;;;11.20;99.90;;;;;;8433137;28;19951;-73
2021/11/20 02:05:33;;;;;;;;;;;11.20;99.90;;;;;;8424606;28;19982;-73
2021/11/20 02:09:44;;;;;;;;;;;11.20;99.90;;;;;;8428632;28;19958;-73
2021/11/20 02:13:45;;;;;;;;;;;11.30;99.90;;;;;;8430496;28;19943;-73
2021/11/20 02:17:49;;;;;;;;;;;11.30;99.90;;;;;;8458123;27;19920;-73
2021/11/20 02:21:53;;;;;;;;;;;11.30;99.90;;;;;;8425644;28;19927;-73
2021/11/20 02:25:55;;;;;;;;;;;11.20;99.90;;;;;;8432720;28;19920;-73
2021/11/20 02:30:32;;;;;;;;;;;11.20;99.90;;;;;;8434061;28;19938;-73
2021/11/20 02:34:34;;;;;;;;;;;11.20;99.90;;;;;;8371318;28;19927;-73
2021/11/20 02:38:41;;;;;;;;;;;11.20;99.90;;;;;;8426477;28;19919;-73
2021/11/20 02:42:43;;;;;;;;;;;11.20;99.90;;;;;;8419831;28;20217;-73
2021/11/20 02:46:47;;;;;;;;;;;11.20;99.90;;;;;;8422618;28;20001;-73
2021/11/20 02:50:50;;;;;;;;;;;11.20;99.90;;;;;;8421998;28;19920;-73
2021/11/20 02:54:52;;;;;;;;;;;11.20;99.90;;;;;;8422663;28;19926;-73
2021/11/20 02:58:55;;;;;;;;;;;11.20;99.90;;;;;;8412421;28;19943;-73
2021/11/20 03:02:56;;;;;;;;;;;11.20;99.90;;;;;;8417848;28;20367;-73
2021/11/20 03:06:58;;;;;;;;;;;11.20;99.90;;;;;;8421617;28;20291;-73
2021/11/20 03:11:00;;;;;;;;;;;11.10;99.90;;;;;;8414504;28;20355;-74
2021/11/20 03:15:04;;;;;;;;;;;11.10;99.90;;;;;;8417419;28;19934;-73
2021/11/20 03:19:06;;;;;;;;;;;11.20;99.90;;;;;;8416276;28;20448;-73
2021/11/20 03:23:16;;;;;;;;;;;11.20;99.90;;;;;;8409354;28;19920;-73
2021/11/20 03:27:18;;;;;;;;;;;11.10;99.90;;;;;;8414759;28;19927;-73
2021/11/20 03:31:20;;;;;;;;;;;11.20;99.90;;;;;;8413407;28;19924;-73
2021/11/20 03:35:22;;;;;;;;;;;11.10;99.90;;;;;;8447113;28;20405;-73
2021/11/20 03:39:24;;;;;;;;;;;11.10;99.90;;;;;;8414825;28;19920;-73
2021/11/20 03:43:25;;;;;;;;;;;11.20;99.90;;;;;;8421982;28;19943;-73
2021/11/20 03:47:27;;;;;;;;;;;11.10;99.90;;;;;;8429916;28;20417;-73
2021/11/20 03:51:29;;;;;;;;;;;11.10;99.90;;;;;;8461436;27;19928;-73
2021/11/20 03:55:35;;;;;;;;;;;11.10;99.90;;;;;;8424144;28;19975;-73
2021/11/20 03:59:37;;;;;;;;;;;11.10;99.90;;;;;;8426938;28;19920;-73
2021/11/20 04:03:39;;;;;;;;;;;11.10;99.90;;;;;;8428339;28;19920;-73
2021/11/20 04:07:41;;;;;;;;;;;11.10;99.90;;;;;;8433476;28;19927;-73
2021/11/20 04:11:44;;;;;;;;;;;11.10;99.90;;;;;;8426395;28;19924;-73
2021/11/20 04:15:47;;;;;;;;;;;11.20;99.90;;;;;;8431788;28;19926;-73
2021/11/20 04:19:48;;;;;;;;;;;11.10;99.90;;;;;;8430291;28;19931;-73
2021/11/20 04:23:50;;;;;;;;;;;11.10;99.90;;;;;;8433676;28;19927;-73
2021/11/20 04:27:52;;;;;;;;;;;11.10;99.90;;;;;;8434304;28;19930;-73
2021/11/20 04:31:54;;;;;;;;;;;11.10;99.90;;;;;;8430943;28;19920;-73
2021/11/20 04:35:55;;;;;;;;;;;11.10;99.90;;;;;;8438806;28;19927;-73
2021/11/20 04:39:58;;;;;;;;;;;11.10;99.90;;;;;;8426198;28;19939;-73
2021/11/20 04:43:59;;;;;;;;;;;11.10;99.90;;;;;;8425818;28;20244;-73
2021/11/20 04:48:03;;;;;;;;;;;11.10;99.90;;;;;;8425880;28;19920;-73
2021/11/20 04:52:05;;;;;;;;;;;11.00;99.90;;;;;;8423379;28;20320;-73
2021/11/20 04:56:07;;;;;;;;;;;11.00;99.90;;;;;;8430005;28;19920;-73
2021/11/20 05:00:17;;;;;;;;;;;11.00;99.90;;;;;;8423725;28;19969;-73
2021/11/20 05:04:19;;;;;;;;;;;10.90;99.90;;;;;;8418634;28;19924;-73
2021/11/20 05:08:22;;;;;;;;;;;11.00;99.90;;;;;;8427223;28;19969;-73
2021/11/20 05:12:24;;;;;;;;;;;11.00;99.90;;;;;;8418635;28;20286;-73
2021/11/20 05:16:25;;;;;;;;;;;11.00;99.90;;;;;;8420617;28;19924;-73
2021/11/20 05:20:27;;;;;;;;;;;11.00;99.90;;;;;;8426207;28;20006;-73
2021/11/20 05:24:29;;;;;;;;;;;11.00;99.90;;;;;;8423558;28;19920;-73
2021/11/20 05:28:31;;;;;;;;;;;11.00;99.90;;;;;;8425354;28;19920;-73
2021/11/20 05:32:33;;;;;;;;;;;11.00;99.90;;;;;;8413320;28;20128;-73
2021/11/20 05:36:36;;;;;;;;;;;11.00;99.90;;;;;;8451489;27;19928;-73
2021/11/20 05:40:38;;;;;;;;;;;11.00;99.90;;;;;;8417930;28;19931;-73
2021/11/20 05:44:40;;;;;;;;;;;11.00;99.90;;;;;;8423985;28;19928;-73
2021/11/20 05:48:41;;;;;;;;;;;11.00;99.90;;;;;;8405034;28;20530;-73
2021/11/20 05:52:44;;;;;;;;;;;11.00;99.90;;;;;;8408774;28;19928;-72
2021/11/20 05:56:45;;;;;;;;;;;11.00;99.90;;;;;;8421183;28;19924;-73
2021/11/20 06:01:00;;;;;;;;;;;11.00;99.90;;;;;;8424519;28;19920;-72
2021/11/20 06:05:02;;;;;;;;;;;11.00;99.90;;;;;;8425667;28;19920;-73
2021/11/20 06:09:05;;;;;;;;;;;11.00;99.90;;;;;;8418951;28;19920;-73
2021/11/20 06:13:07;;;;;;;;;;;11.00;99.90;;;;;;8418466;28;19920;-73
2021/11/20 06:17:09;;;;;;;;;;;11.00;99.90;;;;;;8426436;28;19920;-73
2021/11/20 06:21:11;;;;;;;;;;;10.90;99.90;;;;;;8421594;28;19924;-73
2021/11/20 06:25:13;;;;;;;;;;;10.90;99.90;;;;;;8424503;28;19933;-73
2021/11/20 06:29:15;;;;;;;;;;;10.90;99.90;;;;;;8427014;28;19920;-73
2021/11/20 06:33:16;;;;;;;;;;;10.90;99.90;;;;;;8425573;28;20432;-73
2021/11/20 06:37:23;;;;;;;;;;;10.90;99.90;;;;;;8430359;28;19924;-73
2021/11/20 06:41:25;;;;;;;;;;;10.90;99.90;;;;;;8415190;28;19975;-73
2021/11/20 06:45:28;;;;;;;;;;;10.90;99.90;;;;;;8421455;28;20261;-73
2021/11/20 06:49:30;;;;;;;;;;;10.90;99.90;;;;;;8425538;28;19920;-73
2021/11/20 06:53:32;;;;;;;;;;;10.90;99.90;;;;;;8429454;28;19920;-72
2021/11/20 06:57:49;;;;;;;;;;;10.90;99.90;;;;;;8416797;28;19924;-73
2021/11/20 07:01:52;;;;;;;;;;;10.90;99.90;;;;;;8419764;28;20371;-73
2021/11/20 07:05:56;;;;;;;;;;;10.90;99.90;;;;;;8418214;28;19985;-73
2021/11/20 07:09:57;;;;;;;;;;;10.90;99.90;;;;;;8414855;28;19993;-73
2021/11/20 07:13:59;;;;;;;;;;;10.90;99.90;;;;;;8420440;28;20379;-73
2021/11/20 07:18:01;;;;;;;;;;;10.90;99.90;;;;;;8426523;28;19935;-73
2021/11/20 07:22:03;;;;;;;;;;;10.90;99.90;;;;;;8414631;28;19928;-73
2021/11/20 07:26:05;;;;;;;;;;;10.90;99.90;;;;;;8420598;28;19939;-73
2021/11/20 07:30:09;;;;;;;;;;;10.90;99.90;;;;;;8421287;28;19928;-73
2021/11/20 07:34:11;;;;;;;;;;;10.90;99.90;;;;;;8422493;28;19920;-73
2021/11/20 07:38:14;;;;;;;;;;;10.90;99.90;;;;;;8423118;28;20360;-73
2021/11/20 07:42:16;;;;;;;;;;;10.90;99.90;;;;;;8433651;28;19974;-73
2021/11/20 07:46:18;;;;;;;;;;;10.80;99.90;;;;;;8428431;28;19973;-73
2021/11/20 07:50:21;;;;;;;;;;;10.80;99.90;;;;;;8427360;28;19924;-73
2021/11/20 07:54:23;;;;;;;;;;;10.70;99.90;;;;;;8425467;28;19965;-73
2021/11/20 07:58:27;;;;;;;;;;;10.70;99.90;;;;;;8414557;28;19924;-73
2021/11/20 08:02:28;;;;;;;;;;;10.70;99.90;;;;;;8417876;28;20632;-73
2021/11/20 08:06:31;;;;;;;;;;;10.70;99.90;;;;;;8425671;28;19920;-73
2021/11/20 08:10:33;;;;;;;;;;;10.70;99.90;;;;;;8420995;28;19928;-73
2021/11/20 08:14:35;;;;;;;;;;;10.70;99.90;;;;;;8425493;28;20382;-73
2021/11/20 08:18:37;;;;;;;;;;;10.70;99.90;;;;;;8427705;28;19920;-72
2021/11/20 08:22:39;;;;;;;;;;;10.70;99.90;;;;;;8419851;28;19935;-73
2021/11/20 08:26:43;;;;;;;;;;;10.80;99.90;;;;;;8424477;28;20003;-73
2021/11/20 08:30:45;;;;;;;;;;;10.80;99.90;;;;;;8423915;28;19946;-72
2021/11/20 08:34:47;;;;;;;;;;;10.80;99.90;;;;;;8427419;28;19938;-73
2021/11/20 08:38:49;;;;;;;;;;;10.80;99.90;;;;;;8427977;28;20431;-73
2021/11/20 08:42:52;;;;;;;;;;;10.80;99.90;;;;;;8424219;28;20287;-73
2021/11/20 08:46:54;;;;;;;;;;;10.80;99.90;;;;;;8423149;28;20056;-73
2021/11/20 08:50:57;;;;;;;;;;;10.80;99.90;;;;;;8420697;28;20331;-73
2021/11/20 08:54:59;;;;;;;;;;;10.80;99.90;;;;;;8430202;28;19924;-73
2021/11/20 08:59:01;;;;;;;;;;;10.80;99.90;;;;;;8418632;28;19920;-73
2021/11/20 09:03:06;;;;;;;;;;;10.90;99.90;;;;;;8428495;28;20021;-73
2021/11/20 09:07:12;;;;;;;;;;;10.90;99.90;;;;;;8425805;28;19920;-73
2021/11/20 09:11:15;;;;;;;;;;;10.90;99.90;;;;;;8448040;27;19968;-73
2021/11/20 09:15:17;;;;;;;;;;;10.90;99.90;;;;;;8428399;28;19928;-73
2021/11/20 09:19:19;;;;;;;;;;;10.90;99.90;;;;;;8427225;28;20405;-73
2021/11/20 09:23:28;;;;;;;;;;;10.90;99.90;;;;;;8424147;28;19965;-72
2021/11/20 09:27:47;;;;;;;;;;;11.00;99.90;;;;;;8427118;28;19930;-73
2021/11/20 09:31:50;;;;;;;;;;;11.00;99.90;;;;;;8417248;28;19942;-73
2021/11/20 09:35:52;;;;;;;;;;;11.00;99.90;;;;;;8420613;28;19920;-73
2021/11/20 09:39:54;;;;;;;;;;;11.00;99.90;;;;;;8413143;28;19974;-73
2021/11/20 09:43:58;;;;;;;;;;;11.10;99.90;;;;;;8420883;28;19920;-75
2021/11/20 09:48:12;;;;;;;;;;;11.10;99.90;;;;;;8423744;28;20279;-74
2021/11/20 09:52:15;;;;;;;;;;;11.10;99.90;;;;;;8422243;28;19925;-73
2021/11/20 09:56:21;;;;;;;;;;;11.10;99.90;;;;;;8419455;28;19920;-73
2021/11/20 10:00:41;;;;;;;;;;;11.10;99.90;;;;;;8408940;28;19920;-73
2021/11/20 10:05:13;;;;;;;;;;;11.10;99.90;;;;;;8414147;28;19935;-73
2021/11/20 10:09:22;;;;;;;;;;;11.10;99.90;;;;;;8408167;28;19924;-73
2021/11/20 10:13:29;;;;;;;;;;;11.10;99.90;;;;;;8420762;28;19923;-73
2021/11/20 10:17:30;;;;;;;;;;;11.10;99.90;;;;;;8414043;28;19943;-73
2021/11/20 10:21:32;;;;;;;;;;;11.10;99.90;;;;;;8421170;28;19927;-73
2021/11/20 10:25:52;;;;;;;;;;;11.20;99.90;;;;;;8430635;28;19974;-73
2021/11/20 10:29:59;;;;;;;;;;;11.20;99.90;;;;;;8417932;28;19934;-73
2021/11/20 10:34:06;;;;;;;;;;;11.20;99.90;;;;;;8418302;28;20394;-73
2021/11/20 10:38:08;;;;;;;;;;;11.30;99.90;;;;;;8425355;28;19920;-73
2021/11/20 10:42:15;;;;;;;;;;;11.30;99.90;;;;;;8424159;28;19970;-72
2021/11/20 10:46:26;;;;;;;;;;;11.30;99.90;;;;;;8427068;28;19928;-73
2021/11/20 10:50:31;;;;;;;;;;;11.30;99.90;;;;;;8415773;28;20360;-73
2021/11/20 10:54:33;;;;;;;;;;;11.30;99.90;;;;;;8428127;28;19920;-73
2021/11/20 10:58:50;;;;;;;;;;;11.30;99.90;;;;;;8420263;28;19924;-73
2021/11/20 11:03:10;;;;;;;;;;;11.30;99.90;;;;;;8454305;28;19954;-73
2021/11/20 11:07:24;;;;;;;;;;;11.30;99.90;;;;;;8425710;28;19927;-73
2021/11/20 11:11:38;;;;;;;;;;;11.30;99.90;;;;;;8424947;28;20283;-73
2021/11/20 11:15:46;;;;;;;;;;;11.30;99.90;;;;;;8427537;28;19965;-73
2021/11/20 11:19:48;;;;;;;;;;;11.30;99.90;;;;;;8437846;28;19969;-73
2021/11/20 11:23:55;;;;;;;;;;;11.30;99.90;;;;;;8431450;28;20256;-73
2021/11/20 11:28:06;;;;;;;;;;;11.30;99.90;;;;;;8427541;28;20334;-73
2021/11/20 11:32:08;;;;;;;;;;;11.30;99.90;;;;;;8444595;27;19931;-73
2021/11/20 11:36:22;;;;;;;;;;;11.30;99.90;;;;;;8431029;28;20286;-72
2021/11/20 11:40:38;;;;;;;;;;;11.30;99.90;;;;;;8419755;28;19923;-73
2021/11/20 11:44:58;;;;;;;;;;;11.30;99.90;;;;;;8420054;28;20280;-73
2021/11/20 11:49:22;;;;;;;;;;;11.30;99.90;;;;;;8430802;28;19920;-73
2021/11/20 11:53:34;;;;;;;;;;;11.30;99.90;;;;;;8422447;28;19929;-73
2021/11/20 11:58:05;;;;;;;;;;;11.30;99.90;;;;;;8414233;28;19989;-73
2021/11/20 12:02:31;;;;;;;;;;;11.30;99.90;;;;;;8387141;28;19973;-72
2021/11/20 12:06:41;;;;;;;;;;;11.30;99.90;;;;;;8426586;28;19954;-73
2021/11/20 12:10:47;;;;;;;;;;;11.30;99.90;;;;;;8428234;28;20399;-73
2021/11/20 12:15:17;;;;;;;;;;;11.30;99.90;;;;;;8420672;28;19970;-74
2021/11/20 12:19:24;;;;;;;;;;;11.30;99.90;;;;;;8429035;28;19924;-73
2021/11/20 12:23:35;;;;;;;;;;;11.30;99.90;;;;;;8426609;28;19920;-73
2021/11/20 12:27:51;;;;;;;;;;;11.30;99.90;;;;;;8430395;28;20519;-73
2021/11/20 12:32:06;;;;;;;;;;;11.30;99.90;;;;;;8431923;28;19927;-73
2021/11/20 12:36:27;;;;;;;;;;;11.30;99.90;;;;;;8415607;28;20284;-73
2021/11/20 12:40:50;;;;;;;;;;;11.30;99.90;;;;;;8420581;28;19920;-73
2021/11/20 12:45:18;;;;;;;;;;;11.30;99.90;;;;;;8421214;28;20023;-73
2021/11/20 12:49:32;;;;;;;;;;;11.30;99.90;;;;;;8417716;28;19924;-72
2021/11/20 12:53:50;;;;;;;;;;;11.30;99.90;;;;;;8395114;28;20264;-73
2021/11/20 12:57:54;;;;;;;;;;;11.30;99.90;;;;;;8400434;28;19935;-73
2021/11/20 13:02:03;;;;;;;;;;;11.30;99.90;;;;;;8398129;28;19935;-73
2021/11/20 13:06:17;;;;;;;;;;;11.30;99.90;;;;;;8390354;28;19935;-73
2021/11/20 13:10:21;;;;;;;;;;;11.30;99.90;;;;;;8391558;28;19921;-73
2021/11/20 13:14:31;;;;;;;;;;;11.30;99.90;;;;;;8390524;28;19939;-73
2021/11/20 13:18:35;;;;;;;;;;;11.30;99.90;;;;;;8390232;28;19920;-72
2021/11/20 13:22:38;;;;;;;;;;;11.30;99.90;;;;;;8390081;28;19965;-73
2021/11/20 13:27:08;;;;;;;;;;;11.30;99.90;;;;;;8393453;28;19932;-73
2021/11/20 13:31:10;;;;;;;;;;;11.20;99.90;;;;;;8394935;28;20845;-73
2021/11/20 13:35:12;;;;;;;;;;;11.20;99.90;;;;;;8402005;28;19948;-73
2021/11/20 13:39:14;;;;;;;;;;;11.20;99.90;;;;;;8408853;28;19920;-73
2021/11/20 13:43:20;;;;;;;;;;;11.20;99.90;;;;;;8393029;28;20402;-73
2021/11/20 13:47:21;;;;;;;;;;;11.10;99.90;;;;;;8403931;28;20360;-73
2021/11/20 13:51:26;;;;;;;;;;;11.20;99.90;;;;;;8399666;28;19956;-73
2021/11/20 13:55:28;;;;;;;;;;;11.10;99.90;;;;;;8396063;28;20560;-73
2021/11/20 13:59:30;;;;;;;;;;;11.10;99.90;;;;;;8392844;28;19927;-73
2021/11/20 14:03:32;;;;;;;;;;;11.10;99.90;;;;;;8403850;28;19965;-72
2021/11/20 14:07:35;;;;;;;;;;;11.00;99.90;;;;;;8397005;28;19924;-72
2021/11/20 14:11:40;;;;;;;;;;;11.00;99.90;;;;;;8397347;28;19978;-75
2021/11/20 14:15:49;;;;;;;;;;;11.00;99.90;;;;;;8397716;28;19939;-75
2021/11/20 14:19:50;;;;;;;;;;;11.00;99.90;;;;;;8400030;28;19920;-75
2021/11/20 14:23:57;;;;;;;;;;;11.00;99.90;;;;;;8403854;28;20272;-75
2021/11/20 14:28:00;;;;;;;;;;;10.90;99.90;;;;;;8392343;28;20492;-75
2021/11/20 14:32:06;;;;;;;;;;;10.90;99.90;;;;;;8391299;28;20387;-75
2021/11/20 14:36:08;;;;;;;;;;;11.00;99.90;;;;;;8392683;28;19979;-76
2021/11/20 14:40:12;;;;;;;;;;;10.90;99.90;;;;;;8388378;28;20015;-75
2021/11/20 14:44:16;;;;;;;;;;;10.90;99.90;;;;;;8392564;28;19924;-75
2021/11/20 14:48:20;;;;;;;;;;;10.90;99.90;;;;;;8390947;28;19927;-76
2021/11/20 14:52:26;;;;;;;;;;;11.00;99.90;;;;;;8400854;28;19931;-75
2021/11/20 14:56:32;;;;;;;;;;;11.00;99.90;;;;;;8397953;28;19924;-75
2021/11/20 15:00:34;;;;;;;;;;;10.90;99.90;;;;;;8398316;28;19940;-75
2021/11/20 15:04:37;;;;;;;;;;;10.90;99.90;;;;;;8392186;28;19927;-74
2021/11/20 15:08:38;;;;;;;;;;;10.90;99.90;;;;;;8390957;28;19920;-75
2021/11/20 15:12:40;;;;;;;;;;;10.90;99.90;;;;;;8393146;28;20273;-75
2021/11/20 15:16:43;;;;;;;;;;;10.80;99.90;;;;;;8409094;28;20151;-75
2021/11/20 15:20:45;;;;;;;;;;;10.80;99.90;;;;;;8388537;28;20371;-74
2021/11/20 15:24:47;;;;;;;;;;;10.80;99.90;;;;;;8388769;28;20284;-75
2021/11/20 15:28:48;;;;;;;;;;;10.80;99.90;;;;;;8393937;28;20256;-75
2021/11/20 15:32:50;;;;;;;;;;;10.70;99.90;;;;;;8397605;28;19924;-75
2021/11/20 15:36:52;;;;;;;;;;;10.70;99.90;;;;;;8419984;28;19927;-75
2021/11/20 15:40:55;;;;;;;;;;;10.70;99.90;;;;;;8400701;28;19925;-74
2021/11/20 15:44:56;;;;;;;;;;;10.70;99.90;;;;;;8398316;28;19924;-75
2021/11/20 15:48:58;;;;;;;;;;;10.70;99.90;;;;;;8407138;28;19919;-75
2021/11/20 15:52:59;;;;;;;;;;;10.70;99.90;;;;;;8397938;28;19920;-75
2021/11/20 15:57:02;;;;;;;;;;;10.60;99.90;;;;;;8392623;28;19920;-76
2021/11/20 16:01:03;;;;;;;;;;;10.60;99.90;;;;;;8403381;28;19927;-75
2021/11/20 16:05:05;;;;;;;23.70;11.88;;;10.50;99.90;;;;;;8398375;28;19970;-75
2021/11/20 16:09:07;;;;;;;23.85;11.85;;;10.50;99.90;;;;;;8398171;28;20048;-76
2021/11/20 16:13:09;;;;;;;25.65;12.68;;;10.50;99.90;;;;;;8395868;28;20484;-75
2021/11/20 16:17:11;;;;;;;28.85;13.60;;;10.40;99.90;;;;;;8397626;28;20568;-75
2021/11/20 16:21:13;;;;;;;22.55;11.77;;;10.40;99.90;;;;;;8394034;28;20080;-75
2021/11/20 16:25:15;;;;;;;21.17;11.07;;;10.40;99.90;;;;;;8394808;28;20048;-75
2021/11/20 16:29:17;;;;;;;;;;;10.40;99.90;;;;;;8392743;28;20051;-75
2021/11/20 16:33:19;;;;;;;;;;;10.30;99.90;;;;;;8402572;28;19928;-75
2021/11/20 16:37:21;;;;;;;;;;;10.30;99.90;;;;;;8396629;28;19920;-75
2021/11/20 16:41:24;;;;;;;;;;;10.20;99.90;;;;;;8399380;28;20020;-75
2021/11/20 16:45:26;;;;;;;;;;;10.20;99.90;;;;;;8395914;28;19950;-75
2021/11/20 16:49:28;;;;;;;;;;;10.10;99.90;;;;;;8413494;27;19974;-75
2021/11/20 16:53:29;;;;;;;;;;;10.10;99.90;;;;;;8396648;28;19928;-75
2021/11/20 16:57:32;;;;;;;;;;;10.00;99.90;;;;;;8399864;28;19925;-75
2021/11/20 17:01:34;;;;;;;;;;;10.00;99.90;;;;;;8395820;28;19928;-75
2021/11/20 17:05:36;;;;;;;;;;;9.90;99.90;;;;;;8398565;28;19935;-75
2021/11/20 17:09:38;;;;;;;;;;;9.90;99.90;;;;;;8401795;28;20290;-75
2021/11/20 17:13:40;;;;;;;;;;;9.80;99.90;;;;;;8412726;28;19943;-75
2021/11/20 17:17:41;;;;;;;;;;;9.80;99.90;;;;;;8407012;28;20442;-75
2021/11/20 17:21:43;;;;;;;;;;;9.80;99.90;;;;;;8394806;28;20302;-75
2021/11/20 17:25:45;;;;;;;;;;;9.80;99.90;;;;;;8397143;28;20019;-75
2021/11/20 17:29:46;;;;;;;;;;;9.70;99.90;;;;;;8399612;28;21433;-75
2021/11/20 17:33:49;;;;;;;;;;;9.70;99.90;;;;;;8392952;28;19928;-75
2021/11/20 17:37:51;;;;;;;;;;;9.70;99.90;;;;;;8397046;28;20440;-75
2021/11/20 17:41:52;;;;;;;;;;;9.70;99.90;;;;;;8392522;28;19940;-75
2021/11/20 17:45:54;;;;;;;;;;;9.70;99.90;;;;;;8411354;27;19928;-75
2021/11/20 17:49:56;;;;;;;;;;;9.70;99.90;;;;;;8409928;27;19928;-75
2021/11/20 17:53:58;;;;;;;;;;;9.70;99.90;;;;;;8394537;28;19974;-74
2021/11/20 17:58:02;;;;;;;;;;;9.60;99.90;;;;;;8392869;28;20326;-75
2021/11/20 18:02:04;;;;;;;;;;;9.60;99.90;;;;;;8393063;28;19920;-75
2021/11/20 18:06:06;;;;;;;;;;;9.60;99.90;;;;;;8395588;28;19920;-75
2021/11/20 18:10:10;;;;;;;;;;;9.60;99.90;;;;;;8399556;28;19922;-75
2021/11/20 18:14:11;;;;;;;;;;;9.60;99.90;;;;;;8397915;28;19924;-74
2021/11/20 18:18:13;;;;;;;;;;;9.60;99.90;;;;;;8409663;28;20038;-75
2021/11/20 18:22:16;;;;;;;;;;;9.60;99.90;;;;;;8404234;28;19923;-75
2021/11/20 18:26:19;;;;;;;;;;;9.60;99.90;;;;;;8406775;28;19924;-75
2021/11/20 18:30:20;;;;;;;;;;;9.50;99.90;;;;;;8398087;28;19928;-75
2021/11/20 18:34:22;;;;;;;;;;;9.50;99.90;;;;;;8400084;28;19924;-75
2021/11/20 18:38:24;;;;;;;;;;;9.50;99.90;;;;;;8398483;28;19927;-75
2021/11/20 18:42:27;;;;;;;;;;;9.50;99.90;;;;;;8399602;28;19926;-75
2021/11/20 18:46:28;;;;;;;;;;;9.50;99.90;;;;;;8416815;28;20304;-74
2021/11/20 18:50:31;;;;;;;;;;;9.40;99.90;;;;;;8395178;28;19928;-74
2021/11/20 18:54:32;;;;;;;;;;;9.40;99.90;;;;;;8390887;28;19924;-74
2021/11/20 18:58:34;;;;;;;;;;;9.40;99.90;;;;;;8406670;28;19921;-74
2021/11/20 19:02:36;;;;;;;;;;;9.40;99.90;;;;;;8390330;28;20023;-74
2021/11/20 19:06:38;;;;;;;;;;;9.40;99.90;;;;;;8404583;28;20281;-74
2021/11/20 19:10:40;;;;;;;;;;;9.30;99.90;;;;;;8390367;28;19943;-74
2021/11/20 19:14:42;;;;;;;;;;;9.30;99.90;;;;;;8401141;28;19928;-74
2021/11/20 19:18:44;;;;;;;;;;;9.30;99.90;;;;;;8393245;28;20334;-74
2021/11/20 19:22:46;;;;;;;;;;;9.30;99.90;;;;;;8388991;28;19958;-74
2021/11/20 19:26:47;;;;;;;;;;;9.30;99.90;;;;;;8389250;28;20007;-74
2021/11/20 19:30:49;;;;;;;;;;;9.30;99.90;;;;;;8389822;28;19931;-74
2021/11/20 19:34:51;;;;;;;;;;;9.20;99.90;;;;;;8392401;28;20033;-74
2021/11/20 19:38:53;;;;;;;;;;;9.20;99.90;;;;;;8394338;28;19924;-74
2021/11/20 19:42:54;;;;;;;;;;;9.20;99.90;;;;;;8390435;28;19928;-74
2021/11/20 19:46:56;;;;;;;;;;;9.20;99.90;;;;;;8391169;28;20437;-74
2021/11/20 19:50:58;;;;;;;;;;;9.20;99.90;;;;;;8403723;28;20415;-74
2021/11/20 19:54:59;;;;;;;;;;;9.10;99.90;;;;;;8402400;28;20604;-74
2021/11/20 19:59:02;;;;;;;;;;;9.10;99.90;;;;;;8399524;28;19919;-74
2021/11/20 20:03:05;;;;;;;;;;;9.10;99.90;;;;;;8397452;28;19920;-74
2021/11/20 20:07:09;;;;;;;;;;;9.10;99.90;;;;;;8400328;28;19924;-74
2021/11/20 20:11:11;;;;;;;;;;;9.10;99.90;;;;;;8393975;28;20957;-74
2021/11/20 20:15:13;;;;;;;;;;;9.10;99.90;;;;;;8407660;28;19924;-74
2021/11/20 20:19:15;;;;;;;;;;;9.10;99.90;;;;;;8406436;28;19924;-74
2021/11/20 20:23:16;;;;;;;;;;;9.10;99.90;;;;;;8393420;28;19947;-74
2021/11/20 20:27:21;;;;;;;;;;;9.10;99.90;;;;;;8396539;28;19943;-74
2021/11/20 20:31:24;;;;;;;;;;;9.10;99.90;;;;;;8395098;28;19920;-74
2021/11/20 20:35:26;;;;;;;;;;;9.10;99.90;;;;;;8398005;28;19920;-74
2021/11/20 20:39:27;;;;;;;;;;;9.10;99.90;;;;;;8398289;28;19932;-74
2021/11/20 20:43:29;;;;;;;;;;;9.10;99.90;;;;;;8400991;28;19920;-74
2021/11/20 20:47:31;;;;;;;;;;;9.10;99.90;;;;;;8391938;28;20459;-74
2021/11/20 20:51:35;;;;;;;;;;;9.10;99.90;;;;;;8396442;28;19928;-74
2021/11/20 20:55:37;;;;;;;;;;;9.10;99.90;;;;;;8394182;28;19940;-74
2021/11/20 20:59:38;;;;;;;;;;;9.20;99.90;;;;;;8393525;28;20364;-73
2021/11/20 21:03:41;;;;;;;;;;;9.20;99.90;;;;;;8392052;28;19924;-74
2021/11/20 21:07:57;;;;;;;;;;;9.20;99.90;;;;;;8393890;28;19977;-74
2021/11/20 21:11:59;;;;;;;;;;;9.10;99.90;;;;;;8393484;28;20238;-74
2021/11/20 21:16:02;;;;;;;;;;;9.10;99.90;;;;;;8392192;28;20275;-74
2021/11/20 21:24:25;;;;;;;;;;;9.10;99.90;;;;;;8389978;28;19920;-74
2021/11/20 21:28:26;;;;;;;;;;;9.10;99.90;;;;;;8408718;27;20279;-74
2021/11/20 21:32:28;;;;;;;;;;;9.10;99.90;;;;;;8395997;28;20327;-72
2021/11/20 21:36:30;;;;;;;;;;;9.10;99.90;;;;;;8399812;28;19924;-72
2021/11/20 21:40:32;;;;;;;;;;;9.10;99.90;;;;;;8391708;28;20361;-72
2021/11/20 21:44:34;;;;;;;;;;;9.10;99.90;;;;;;8389371;28;19935;-72
2021/11/20 21:48:36;;;;;;;;;;;9.10;99.90;;;;;;8390563;28;19988;-72
2021/11/20 21:52:39;;;;;;;;;;;9.10;99.90;;;;;;8394171;28;20287;-72
2021/11/20 21:56:41;;;;;;;;;;;9.10;99.90;;;;;;8392871;28;19932;-72
2021/11/20 22:00:43;;;;;;;;;;;9.20;99.90;;;;;;8401793;28;20169;-71
2021/11/20 22:04:45;;;;;;;;;;;9.20;99.90;;;;;;8427009;28;20339;-72
2021/11/20 22:08:48;;;;;;;;;;;9.20;99.90;;;;;;8422411;28;20342;-71
2021/11/20 22:12:50;;;;;;;;;;;9.20;99.90;;;;;;8435821;27;20374;-71
2021/11/20 22:16:51;;;;;;;;;;;9.30;99.90;;;;;;8426943;28;20386;-72
2021/11/20 22:20:53;;;;;;;;;;;9.30;99.90;;;;;;8422886;28;19924;-71
2021/11/20 22:24:57;;;;;;;;;;;9.30;99.90;;;;;;8428906;28;19966;-72
2021/11/20 22:28:59;;;;;;;;;;;9.30;99.90;;;;;;8429544;28;20287;-72
2021/11/20 22:33:01;;;;;;;;;;;9.30;99.90;;;;;;8422890;28;20232;-71
2021/11/20 22:37:03;;;;;;;;;;;9.30;99.90;;;;;;8427138;28;19920;-72
2021/11/20 22:41:06;;;;;;;;;;;9.30;99.90;;;;;;8420978;28;20345;-72
2021/11/20 22:45:27;;;;;;;;;;;9.30;99.90;;;;;;8448035;27;20431;-71
2021/11/20 22:49:29;;;;;;;;;;;9.30;99.90;;;;;;8446979;27;19920;-72
2021/11/20 22:53:33;;;;;;;;;;;9.30;99.90;;;;;;8428410;28;19927;-71
2021/11/20 22:57:34;;;;;;;;;;;9.30;99.90;;;;;;8422535;28;20011;-71
2021/11/20 23:01:36;;;;;;;;;;;9.30;99.90;;;;;;8428367;28;20303;-72
2021/11/20 23:05:39;;;;;;;;;;;9.30;99.90;;;;;;8426376;28;19919;-72
2021/11/20 23:09:41;;;;;;;;;;;9.30;99.90;;;;;;8436865;28;20299;-72
2021/11/20 23:13:42;;;;;;;;;;;9.30;99.90;;;;;;8431794;28;19927;-72
2021/11/20 23:17:44;;;;;;;;;;;9.30;99.90;;;;;;8435898;28;20359;-71
2021/11/20 23:22:03;;;;;;;;;;;9.30;99.90;;;;;;8426849;28;20398;-72
2021/11/20 23:26:06;;;;;;;;;;;9.30;99.90;;;;;;8426100;28;19972;-72
2021/11/20 23:30:08;;;;;;;;;;;9.30;99.90;;;;;;8434468;28;19935;-72
2021/11/20 23:34:14;;;;;;;;;;;9.30;99.90;;;;;;8425349;28;19920;-72
2021/11/20 23:38:15;;;;;;;;;;;9.30;99.90;;;;;;8428740;28;20072;-72
2021/11/20 23:42:17;;;;;;;;;;;9.20;99.90;;;;;;8428396;28;19935;-71
2021/11/20 23:46:23;;;;;;;;;;;9.30;99.90;;;;;;8426172;28;19920;-72
2021/11/20 23:50:24;;;;;;;;;;;9.30;99.90;;;;;;8425008;28;19952;-72